Tirrases, Costa Rica

5:18 PM CST on March 29, 2015 (GMT -0600)
Villas San Marino #62 | | Change Station
CLOSE
Current Station
Personal Weather Station
Location: Tres Rios, CARTAGO
Elevation: 4131 ft
Nearby Weather Stations

Elev 4131 ft 9.90 °N, 84.01 °W | Updated 3 minutes ago

Mostly Cloudy
Mostly Cloudy
69.1 °F
Feels Like 69.1 °F
N
4.5
Wind Variable Wind from East
Gusts 6.9 mph

Today
High -- | Low -- °F
--% Chance of Precip.
Yesterday
High -- | Low -- °F
Precip. -- in
5:35 AM 5:46 PM
Waxing Gibbous, 75% visible
Pressure 30.08 in
Visibility 6.2 miles
Clouds Few 3500 ft
Mostly Cloudy 20000 ft
Dew Point 59 °F
Humidity 71%
Rainfall 0.00 in
Snow Depth Not available.
UV out of 12
Pollen Not available.
Air Quality Not available.
Flu Activity Not available.
METAR MRPV 292300Z 07014KT 9999 FEW035 BKN200 22/15 A3008 NOSIG

More Conditions Fewer Conditions

Pressure 30.08 in
Visibility 6.2 miles
Clouds Few 3500 ft
Mostly Cloudy 20000 ft
Dew Point 59 °F
Humidity 71%
Rainfall 0.00 in
Snow Depth Not available.
UV out of 12
Pollen Not available.
Air Quality Not available.
Flu Activity Not available.
METAR MRPV 292300Z 07014KT 9999 FEW035 BKN200 22/15 A3008 NOSIG

More Conditions Fewer Conditions

10-Day Weather Forecast

Almanac

Astronomy

Mar. 29, 2015 Rise Set
Actual Time
Civil Twilight
Nautical Twilight
Astronomical Twilight
Moon
Length of Visible Light
Length of Day
Tomorrow will be .
, % of the Moon is Illuminated

Today's Extremes

Country Highs Country Lows

Community

WunderPhotos

Upload Photos

1,809,378 photos uploaded!

WunderBlogs® & News

Nearby

Air Quality

  Air Quality AQ Index Pollutant
Not available.

Snow Depth

Station Depth Elevation

Earthquake Activity

City Distance Mag. Time & Date
Minimum magnitude displayed is 2.5.

Coastal Water Temperatures

Place Temperature

Stations

Nearby Weather Stations

Station Location Temp. Windchill Dew Point Humidity Wind Precip. Elev Updated Type